createdAt,value
2018-08-12T04:17:30.674Z,10.80
2018-08-12T04:20:03.312Z,9.60
2018-08-12T04:27:37.677Z,9.10
2018-08-12T04:30:11.958Z,9.60
2018-08-12T04:32:44.635Z,9.50
2018-08-12T04:35:17.682Z,9.10
2018-08-12T04:37:50.599Z,8.50
2018-08-12T04:40:23.104Z,9.60
2018-08-12T04:42:56.231Z,9.40
2018-08-12T04:48:49.429Z,7.75
2018-08-12T04:51:22.010Z,8.90
2018-08-12T04:53:54.624Z,10.40
2018-08-12T04:58:58.268Z,10.50
2018-08-12T05:04:51.375Z,10.30
2018-08-12T05:07:23.719Z,9.57
2018-08-12T05:09:56.024Z,10.33
2018-08-12T05:12:28.458Z,9.00
2018-08-12T05:15:00.753Z,10.10
2018-08-12T05:17:33.226Z,8.83
2018-08-12T05:20:05.867Z,8.97
2018-08-12T05:22:38.213Z,9.47
2018-08-12T05:25:10.650Z,10.27
2018-08-12T05:27:43.831Z,10.43
2018-08-12T05:30:16.496Z,9.10
2018-08-12T05:32:49.312Z,9.33
2018-08-12T05:35:21.796Z,8.07
2018-08-12T05:37:54.214Z,9.07
2018-08-12T05:40:26.602Z,10.27
2018-08-12T05:42:58.913Z,11.23
2018-08-12T05:45:31.363Z,10.43
2018-08-12T05:48:03.822Z,13.23
2018-08-12T05:53:57.977Z,9.73
2018-08-12T05:56:30.764Z,9.53
2018-08-12T05:59:03.695Z,10.67
2018-08-12T06:01:36.456Z,9.50
2018-08-12T06:04:09.402Z,11.27
2018-08-12T06:06:42.172Z,10.87
2018-08-12T06:09:15.190Z,9.83
2018-08-12T06:11:48.053Z,11.17
2018-08-12T06:14:21.008Z,14.27
2018-08-12T06:16:53.762Z,15.53
2018-08-12T06:19:26.544Z,12.47
2018-08-12T06:21:59.257Z,12.70
2018-08-12T06:24:32.041Z,11.33
2018-08-12T06:27:04.806Z,13.70
2018-08-12T06:29:37.773Z,11.90
2018-08-12T06:32:10.621Z,11.03
2018-08-12T06:34:43.406Z,12.60
2018-08-12T06:37:16.968Z,11.23
2018-08-12T06:39:54.226Z,10.87
2018-08-12T06:42:28.464Z,11.17
2018-08-12T06:45:01.583Z,11.30
2018-08-12T06:51:02.837Z,11.00
2018-08-12T06:53:35.518Z,12.50
2018-08-12T06:56:10.271Z,11.60
2018-08-12T06:58:42.959Z,11.73
2018-08-12T07:01:15.545Z,10.30
2018-08-12T07:03:48.892Z,12.90
2018-08-12T07:06:21.366Z,11.60
2018-08-12T07:08:53.889Z,13.23
2018-08-12T07:11:26.383Z,13.13
2018-08-12T07:17:20.063Z,13.73
2018-08-12T07:19:52.553Z,11.90
2018-08-12T07:22:24.962Z,13.57
2018-08-12T07:24:57.361Z,13.70
2018-08-12T07:27:29.918Z,12.10
2018-08-12T07:30:02.413Z,12.07
2018-08-12T07:32:35.011Z,12.40
2018-08-12T07:35:08.733Z,12.83
2018-08-12T07:37:42.247Z,12.17
2018-08-12T07:40:20.594Z,12.87
2018-08-12T07:46:14.651Z,16.93
2018-08-12T07:48:47.382Z,15.80
2018-08-12T07:54:51.636Z,17.10
2018-08-12T07:57:23.896Z,18.60
2018-08-12T07:59:56.345Z,16.67
2018-08-12T08:02:28.717Z,15.20
2018-08-12T08:05:00.977Z,13.13
2018-08-12T08:07:57.345Z,12.90
2018-08-12T08:10:29.693Z,14.23
2018-08-12T08:13:02.057Z,14.67
2018-08-12T08:15:35.190Z,13.37
2018-08-12T08:18:07.970Z,13.53
2018-08-12T08:20:40.574Z,12.53
2018-08-12T08:23:13.155Z,13.33
2018-08-12T08:25:45.695Z,13.33
2018-08-12T08:28:18.149Z,13.63
2018-08-12T08:30:50.521Z,12.90
2018-08-12T08:33:23.033Z,13.53
2018-08-12T08:35:55.684Z,13.40
2018-08-12T08:38:28.802Z,13.63
2018-08-12T08:41:01.210Z,13.70
2018-08-12T08:43:33.559Z,13.73
2018-08-12T08:46:06.053Z,13.90
2018-08-12T08:52:00.325Z,15.23
2018-08-12T08:54:32.840Z,14.17
2018-08-12T08:57:05.189Z,12.90
2018-08-12T08:59:37.641Z,15.17
2018-08-12T09:02:10.232Z,15.13
2018-08-12T09:04:42.894Z,13.63
2018-08-12T09:07:15.746Z,14.93
2018-08-12T09:09:48.388Z,15.03
2018-08-12T09:12:20.926Z,15.40
2018-08-12T09:14:53.296Z,15.03
2018-08-12T09:17:25.864Z,14.87
2018-08-12T09:19:58.357Z,14.77
2018-08-12T09:22:30.861Z,13.17
2018-08-12T09:25:03.516Z,12.50
2018-08-12T09:27:35.904Z,12.37
2018-08-12T09:30:16.682Z,13.40
2018-08-12T09:32:50.064Z,13.00
2018-08-12T09:35:22.672Z,11.03
2018-08-12T09:37:55.323Z,11.17
2018-08-12T09:40:28.386Z,11.10
2018-08-12T09:43:00.941Z,11.07
2018-08-12T09:45:33.418Z,11.27
2018-08-12T09:48:06.060Z,11.23
2018-08-12T09:50:38.484Z,12.33
2018-08-12T09:53:10.897Z,13.40
2018-08-12T09:55:43.459Z,13.57
2018-08-12T09:58:15.849Z,12.67
2018-08-12T10:00:48.294Z,13.80
2018-08-12T10:03:20.923Z,12.60
2018-08-12T10:05:53.528Z,13.30
2018-08-12T10:08:25.901Z,14.17
2018-08-12T10:10:58.430Z,12.13
2018-08-12T10:13:30.940Z,12.67
2018-08-12T10:16:03.750Z,13.20
2018-08-12T10:18:36.452Z,13.27
2018-08-12T10:21:09.521Z,12.03
2018-08-12T10:23:42.046Z,13.40
2018-08-12T10:26:14.711Z,13.03
2018-08-12T10:28:47.513Z,12.93
2018-08-12T10:31:20.118Z,12.93
2018-08-12T10:33:52.738Z,12.73
2018-08-12T10:36:25.372Z,12.63
2018-08-12T10:38:57.895Z,12.77
2018-08-12T10:41:30.368Z,13.50
2018-08-12T10:44:02.748Z,14.07
2018-08-12T10:46:35.391Z,13.33
2018-08-12T10:49:08.019Z,13.73
2018-08-12T10:51:40.619Z,13.73
2018-08-12T10:54:13.576Z,13.80
2018-08-12T10:56:46.319Z,13.27
2018-08-12T10:59:20.006Z,12.50
2018-08-12T11:01:52.653Z,12.00
2018-08-12T11:04:25.101Z,11.37
2018-08-12T11:06:57.917Z,12.70
2018-08-12T11:12:51.858Z,11.93
2018-08-12T11:15:24.262Z,14.27
2018-08-12T11:17:56.703Z,13.33
2018-08-12T11:20:29.251Z,14.13
2018-08-12T11:23:01.570Z,13.97
2018-08-12T11:25:33.806Z,12.37
2018-08-12T11:28:06.331Z,12.63
2018-08-12T11:30:38.824Z,11.07
2018-08-12T11:33:11.150Z,12.67
2018-08-12T11:35:43.539Z,13.07
2018-08-12T11:38:16.001Z,25.20
2018-08-12T11:40:48.401Z,21.53
2018-08-12T11:43:21.282Z,16.13
2018-08-12T11:45:53.704Z,14.87
2018-08-12T11:48:25.962Z,16.53
2018-08-12T11:50:58.202Z,18.03
2018-08-12T11:53:58.559Z,15.07
2018-08-12T11:56:31.322Z,16.93
2018-08-12T11:59:03.789Z,14.97
2018-08-12T12:01:36.268Z,16.27
2018-08-12T12:04:08.765Z,14.90
2018-08-12T12:06:41.231Z,15.53
2018-08-12T12:09:14.034Z,14.13
2018-08-12T12:11:46.600Z,14.37
2018-08-12T12:14:18.973Z,14.30
2018-08-12T12:16:51.618Z,15.27
2018-08-12T12:22:50.629Z,14.13
2018-08-12T12:25:23.664Z,16.03
2018-08-12T12:27:56.272Z,16.17
2018-08-12T12:30:28.774Z,18.30
2018-08-12T12:33:01.205Z,15.90
2018-08-12T12:35:33.751Z,17.83
2018-08-12T12:38:06.328Z,18.77
2018-08-12T12:40:38.746Z,18.53
2018-08-12T12:43:12.166Z,16.50
2018-08-12T12:45:44.643Z,16.17
2018-08-12T12:48:17.361Z,14.53
2018-08-12T12:50:49.685Z,13.00
2018-08-12T12:53:22.898Z,12.17
2018-08-12T12:55:56.491Z,10.87
2018-08-12T12:58:30.944Z,10.77
2018-08-12T13:04:24.688Z,9.93
2018-08-12T13:06:58.433Z,12.00
2018-08-12T13:09:30.654Z,14.03
2018-08-12T13:12:03.334Z,12.27
2018-08-12T13:14:35.840Z,11.33
2018-08-12T13:17:08.299Z,9.47
2018-08-12T13:20:12.961Z,9.87
2018-08-12T13:22:46.913Z,8.10
2018-08-12T15:32:33.877Z,7.45
2018-08-12T15:35:06.180Z,6.22
2018-08-12T15:37:38.427Z,6.42
2018-08-12T15:40:14.517Z,7.55
2018-08-12T15:42:46.836Z,7.33
2018-08-12T15:45:19.829Z,7.10
2018-08-12T15:47:52.219Z,7.85
2018-08-12T15:50:24.245Z,8.03
2018-08-12T15:52:56.368Z,7.15
2018-08-12T15:55:28.513Z,7.10
2018-08-12T15:58:00.755Z,6.95
2018-08-12T16:00:32.980Z,7.55
2018-08-12T16:03:05.168Z,6.65
2018-08-12T16:05:39.204Z,7.58
2018-08-12T16:08:11.531Z,8.03
2018-08-12T16:10:44.086Z,7.15
2018-08-12T16:13:21.094Z,9.00
2018-08-12T16:15:54.164Z,8.15
2018-08-12T16:18:30.338Z,7.40
2018-08-12T16:21:03.386Z,7.20
2018-08-12T16:23:35.763Z,7.65
2018-08-12T16:26:08.112Z,8.03
2018-08-12T16:28:40.260Z,7.95
2018-08-12T16:31:13.112Z,7.78
2018-08-12T16:33:45.288Z,7.67
2018-08-12T16:36:17.528Z,12.88
2018-08-12T16:38:49.597Z,10.65
2018-08-12T16:41:21.780Z,6.30
2018-08-12T16:43:54.044Z,6.83
2018-08-12T16:46:26.543Z,9.63
2018-08-12T16:49:00.330Z,10.43
2018-08-12T16:51:35.904Z,5.75
2018-08-12T16:54:08.842Z,6.95
2018-08-12T16:56:40.928Z,7.15
2018-08-12T16:59:12.995Z,7.97
2018-08-12T17:01:45.322Z,9.45
2018-08-12T17:04:17.639Z,7.15
2018-08-12T17:06:49.833Z,7.00
2018-08-12T17:09:23.520Z,7.70
2018-08-12T17:11:55.583Z,11.12
2018-08-12T17:14:27.820Z,7.25
2018-08-12T17:17:00.050Z,7.10
2018-08-12T17:19:32.226Z,6.58
2018-08-12T17:22:05.571Z,5.72
2018-08-12T17:24:37.635Z,6.10
2018-08-12T17:27:10.093Z,7.03
2018-08-12T17:29:42.274Z,6.75
2018-08-12T17:32:14.348Z,6.53
2018-08-12T17:34:46.567Z,5.65
2018-08-12T17:37:18.678Z,7.28
2018-08-12T17:39:51.234Z,7.83
2018-08-12T17:42:23.364Z,7.05
2018-08-12T17:44:55.499Z,7.25
2018-08-12T17:47:28.010Z,6.28
2018-08-12T17:50:00.113Z,6.20
2018-08-12T17:52:32.256Z,5.65
2018-08-12T17:55:04.419Z,5.80
2018-08-12T17:57:37.068Z,6.58
2018-08-12T18:00:11.172Z,6.03
2018-08-12T18:02:43.356Z,4.92
2018-08-12T18:05:16.088Z,4.92
2018-08-12T18:07:48.357Z,5.50
2018-08-12T18:10:21.002Z,5.92
2018-08-12T18:12:53.097Z,5.60
2018-08-12T18:15:27.223Z,4.95
2018-08-12T18:18:00.876Z,4.90
2018-08-12T18:20:33.902Z,5.83
2018-08-12T18:23:07.421Z,5.50
2018-08-12T18:25:39.613Z,5.75
2018-08-12T18:28:11.962Z,5.17
2018-08-12T18:30:48.210Z,6.28
2018-08-12T18:33:20.407Z,5.75
2018-08-12T18:35:52.377Z,5.53
2018-08-12T18:38:24.508Z,4.85
2018-08-12T18:40:56.765Z,5.58
2018-08-12T18:43:32.097Z,5.42
2018-08-12T18:46:05.172Z,4.58
2018-08-12T18:48:37.446Z,4.70
2018-08-12T18:51:09.660Z,4.10
2018-08-12T18:53:41.684Z,4.50
2018-08-12T18:56:14.113Z,5.12
2018-08-12T18:58:46.372Z,3.65
2018-08-12T19:01:19.885Z,4.45
2018-08-12T19:03:52.050Z,4.47
2018-08-12T19:06:24.311Z,4.72
2018-08-12T19:08:56.669Z,5.97
2018-08-12T19:11:28.792Z,5.67
2018-08-12T19:14:00.889Z,6.62
2018-08-12T19:16:32.938Z,6.78
2018-08-12T19:19:05.167Z,7.65
2018-08-12T19:21:37.291Z,11.45
2018-08-12T19:24:09.452Z,7.97
2018-08-12T19:26:41.585Z,9.13
2018-08-12T19:29:13.716Z,5.90
2018-08-12T19:31:46.010Z,7.95
2018-08-12T19:34:18.368Z,7.05
2018-08-12T19:36:50.448Z,5.72
2018-08-12T19:39:22.714Z,5.53
2018-08-12T19:41:55.895Z,4.80
2018-08-12T19:44:28.554Z,5.03
2018-08-12T19:47:06.133Z,5.37
2018-08-12T19:49:38.429Z,4.22
2018-08-12T19:52:10.608Z,4.70
2018-08-12T19:54:42.630Z,5.58
2018-08-12T19:57:15.237Z,6.40
2018-08-12T19:59:47.356Z,4.55
2018-08-12T20:02:20.795Z,5.28
2018-08-12T20:04:56.230Z,4.47
2018-08-12T20:07:30.414Z,4.83
2018-08-12T20:10:03.399Z,4.85
2018-08-12T20:12:35.677Z,4.83
2018-08-12T20:15:10.179Z,4.87
2018-08-12T20:17:42.918Z,4.22
2018-08-12T20:20:15.218Z,4.37
2018-08-12T20:22:47.353Z,4.65
2018-08-12T20:25:19.685Z,4.35
2018-08-12T20:27:51.804Z,4.20
2018-08-12T20:30:23.963Z,3.35
2018-08-12T20:32:56.252Z,4.17
2018-08-12T20:35:28.482Z,4.78
2018-08-12T20:38:00.536Z,4.33
2018-08-12T20:40:32.701Z,6.03
2018-08-12T20:43:04.720Z,4.75
2018-08-12T20:45:36.829Z,5.05
2018-08-12T20:48:09.257Z,4.67
2018-08-12T20:50:41.590Z,4.67
2018-08-12T20:53:13.696Z,3.58
2018-08-12T20:55:45.811Z,4.25
2018-08-12T20:58:17.878Z,4.12
2018-08-12T21:00:49.961Z,5.20
2018-08-12T21:03:22.028Z,4.78
2018-08-12T21:05:54.221Z,4.53
2018-08-12T21:08:26.890Z,4.20
2018-08-12T21:10:59.252Z,5.55
2018-08-12T21:13:31.431Z,3.75
2018-08-12T21:16:03.547Z,4.85
2018-08-12T21:18:37.321Z,4.55
2018-08-12T21:21:09.397Z,5.90
2018-08-12T21:23:41.535Z,6.33
2018-08-12T21:26:13.826Z,5.12
2018-08-12T21:28:45.903Z,3.98
2018-08-12T21:31:18.080Z,4.40
2018-08-12T21:33:50.340Z,3.45
2018-08-12T21:36:22.605Z,5.28
2018-08-12T21:38:54.699Z,4.22
2018-08-12T21:41:26.829Z,4.40
2018-08-12T21:43:58.895Z,5.42
2018-08-12T21:46:31.005Z,4.00
2018-08-12T21:49:03.156Z,4.67
2018-08-12T21:51:35.474Z,4.90
2018-08-12T21:54:07.651Z,5.15
2018-08-12T21:56:39.789Z,5.00
2018-08-12T21:59:11.814Z,5.22
2018-08-12T22:01:44.176Z,4.72
2018-08-12T22:04:16.306Z,4.58
2018-08-12T22:06:48.512Z,5.00
2018-08-12T22:09:20.727Z,5.62
2018-08-12T22:11:52.760Z,4.80
2018-08-12T22:14:24.928Z,11.15
2018-08-12T22:16:56.974Z,13.08
2018-08-12T22:19:29.127Z,5.97
2018-08-12T22:22:01.307Z,5.42
2018-08-12T22:24:33.559Z,6.42
2018-08-12T22:27:05.979Z,6.00
2018-08-12T22:29:37.979Z,5.92
2018-08-12T22:32:10.267Z,5.95
2018-08-12T22:34:42.343Z,4.85
2018-08-12T22:37:14.728Z,5.83
2018-08-12T22:39:46.758Z,4.53
2018-08-12T22:42:18.859Z,5.78
2018-08-12T22:44:51.122Z,5.22
2018-08-12T22:47:23.677Z,5.12
2018-08-12T22:49:55.939Z,4.28
2018-08-12T22:52:29.172Z,4.87
2018-08-12T22:55:01.271Z,4.58
2018-08-12T22:57:33.399Z,6.15
2018-08-12T23:00:05.803Z,6.12
2018-08-12T23:02:38.016Z,5.53
2018-08-12T23:05:10.630Z,6.22
2018-08-12T23:07:42.818Z,5.40
2018-08-12T23:10:14.920Z,4.55
2018-08-12T23:12:47.054Z,4.60
2018-08-12T23:15:28.469Z,5.10
2018-08-12T23:18:01.480Z,4.95
2018-08-12T23:20:33.560Z,4.20
2018-08-12T23:23:05.752Z,5.53
2018-08-12T23:25:37.820Z,5.37
2018-08-12T23:28:09.918Z,4.53
2018-08-12T23:30:42.180Z,5.47
2018-08-12T23:33:14.170Z,5.67
2018-08-12T23:35:46.431Z,6.10
2018-08-12T23:38:18.552Z,5.17
2018-08-12T23:40:50.728Z,5.00
2018-08-12T23:43:24.007Z,5.90
2018-08-12T23:45:56.221Z,5.40
2018-08-12T23:48:28.867Z,4.07
2018-08-12T23:51:01.301Z,3.93
2018-08-12T23:53:34.800Z,4.13
2018-08-12T23:56:07.321Z,4.10
2018-08-12T23:58:39.642Z,4.57
